createdAt,value
2017-09-11T00:00:43.247Z,0.00
2017-09-11T00:01:43.234Z,0.00
2017-09-11T00:02:43.225Z,0.00
2017-09-11T00:03:43.210Z,0.00
2017-09-11T00:04:43.194Z,0.00
2017-09-11T00:05:43.181Z,0.00
2017-09-11T00:06:43.169Z,0.00
2017-09-11T00:07:43.155Z,0.00
2017-09-11T00:08:43.140Z,0.00
2017-09-11T00:09:43.127Z,0.00
2017-09-11T00:10:43.117Z,0.00
2017-09-11T00:11:43.104Z,0.00
2017-09-11T00:12:43.088Z,0.00
2017-09-11T00:13:43.074Z,0.00
2017-09-11T00:14:43.068Z,0.00
2017-09-11T00:15:43.049Z,0.00
2017-09-11T00:16:43.043Z,0.00
2017-09-11T00:17:43.022Z,0.00
2017-09-11T00:18:43.008Z,0.00
2017-09-11T00:19:42.996Z,0.00
2017-09-11T00:20:42.984Z,0.00
2017-09-11T00:21:42.969Z,0.00
2017-09-11T00:22:42.960Z,0.00
2017-09-11T00:23:42.944Z,0.00
2017-09-11T00:24:42.929Z,0.00
2017-09-11T00:25:42.918Z,0.00
2017-09-11T00:26:42.904Z,0.00
2017-09-11T00:27:42.890Z,0.00
2017-09-11T00:28:42.877Z,0.00
2017-09-11T00:29:42.862Z,0.00
2017-09-11T00:30:42.850Z,0.00
2017-09-11T00:31:42.837Z,0.00
2017-09-11T00:32:42.826Z,0.00
2017-09-11T00:33:42.809Z,0.00
2017-09-11T00:34:42.800Z,0.00
2017-09-11T00:35:42.784Z,0.00
2017-09-11T00:36:42.769Z,0.00
2017-09-11T00:37:42.758Z,0.00
2017-09-11T00:38:42.747Z,0.00
2017-09-11T00:39:42.730Z,0.00
2017-09-11T00:40:42.717Z,0.00
2017-09-11T00:41:42.703Z,0.00
2017-09-11T00:42:42.692Z,0.00
2017-09-11T00:43:42.683Z,0.00
2017-09-11T00:44:42.662Z,0.00
2017-09-11T00:45:42.649Z,0.00
2017-09-11T00:46:42.638Z,0.00
2017-09-11T00:47:42.624Z,0.00
2017-09-11T00:48:42.612Z,0.00
2017-09-11T00:49:42.597Z,0.00
2017-09-11T00:50:42.587Z,0.00
2017-09-11T00:51:42.574Z,0.00
2017-09-11T00:52:42.557Z,0.00
2017-09-11T00:53:42.544Z,0.00
2017-09-11T00:54:42.532Z,0.00
2017-09-11T00:55:42.524Z,0.00
2017-09-11T00:56:42.506Z,0.00
2017-09-11T00:57:42.494Z,0.00
2017-09-11T00:58:42.479Z,0.00
2017-09-11T00:59:42.469Z,0.00
2017-09-11T01:00:42.451Z,0.00
2017-09-11T01:01:42.440Z,0.00
2017-09-11T01:02:42.428Z,0.00
2017-09-11T01:03:42.413Z,0.00
2017-09-11T01:04:42.402Z,0.00
2017-09-11T01:05:42.388Z,0.00
2017-09-11T01:06:42.373Z,0.00
2017-09-11T01:07:42.362Z,0.00
2017-09-11T01:08:42.348Z,0.00
2017-09-11T01:09:42.336Z,0.00
2017-09-11T01:10:42.322Z,0.00
2017-09-11T01:11:42.308Z,0.00
2017-09-11T01:12:42.293Z,0.00
2017-09-11T01:13:42.280Z,0.00
2017-09-11T01:14:42.270Z,0.00
2017-09-11T01:15:42.257Z,0.00
2017-09-11T01:16:42.242Z,0.00
2017-09-11T01:17:42.230Z,0.00
2017-09-11T01:18:42.218Z,0.00
2017-09-11T01:19:42.202Z,0.00
2017-09-11T01:20:42.192Z,0.00
2017-09-11T01:21:42.178Z,0.00
2017-09-11T01:22:42.164Z,0.00
2017-09-11T01:23:42.152Z,0.00
2017-09-11T01:24:42.136Z,0.00
2017-09-11T01:25:42.123Z,0.00
2017-09-11T01:26:42.110Z,0.00
2017-09-11T01:27:42.098Z,0.00
2017-09-11T01:28:42.082Z,0.00
2017-09-11T01:29:42.068Z,0.00
2017-09-11T01:30:42.057Z,0.00
2017-09-11T01:31:42.041Z,0.00
2017-09-11T01:32:42.038Z,0.00
2017-09-11T01:33:42.017Z,0.00
2017-09-11T01:34:42.002Z,0.00
2017-09-11T01:35:41.991Z,0.00
2017-09-11T01:36:41.975Z,0.00
2017-09-11T01:37:41.964Z,0.00
2017-09-11T01:38:41.950Z,0.00
2017-09-11T01:39:41.938Z,0.00
2017-09-11T01:40:41.922Z,0.00
2017-09-11T01:41:41.911Z,0.00
2017-09-11T01:42:41.897Z,0.00
2017-09-11T01:43:41.885Z,0.00
2017-09-11T01:44:41.875Z,0.00
2017-09-11T01:45:41.860Z,0.00
2017-09-11T01:46:41.844Z,0.00
2017-09-11T01:47:41.831Z,0.00
2017-09-11T01:48:41.824Z,0.00
2017-09-11T01:49:41.805Z,0.00
2017-09-11T01:50:41.794Z,0.00
2017-09-11T01:51:41.780Z,0.00
2017-09-11T01:52:41.765Z,0.00
2017-09-11T01:53:41.753Z,0.00
2017-09-11T01:54:41.741Z,0.00
2017-09-11T01:55:41.728Z,0.00
2017-09-11T01:56:41.712Z,0.00
2017-09-11T01:57:41.698Z,0.00
2017-09-11T01:58:41.689Z,0.00
2017-09-11T01:59:41.676Z,0.00
2017-09-11T02:00:41.661Z,0.00
2017-09-11T02:01:41.645Z,0.00
2017-09-11T02:02:41.670Z,0.00
2017-09-11T02:03:41.622Z,0.00
2017-09-11T02:04:41.605Z,0.00
2017-09-11T02:05:41.593Z,0.00
2017-09-11T02:06:41.580Z,0.00
2017-09-11T02:07:41.567Z,0.00
2017-09-11T02:08:41.556Z,0.00
2017-09-11T02:09:41.543Z,0.00
2017-09-11T02:10:41.530Z,0.00
2017-09-11T02:11:41.518Z,0.00
2017-09-11T02:12:41.502Z,0.00
2017-09-11T02:13:41.490Z,0.00
2017-09-11T02:14:41.478Z,0.00
2017-09-11T02:15:41.465Z,0.00
2017-09-11T02:16:41.450Z,0.00
2017-09-11T02:17:41.440Z,0.00
2017-09-11T02:18:41.424Z,0.00
2017-09-11T02:19:41.413Z,0.00
2017-09-11T02:20:41.398Z,0.00
2017-09-11T02:21:41.389Z,0.00
2017-09-11T02:22:41.375Z,0.00
2017-09-11T02:23:41.360Z,0.00
2017-09-11T02:24:41.346Z,0.00
2017-09-11T02:25:41.334Z,0.00
2017-09-11T02:26:41.323Z,0.00
2017-09-11T02:27:41.309Z,0.00
2017-09-11T02:28:41.296Z,0.00
2017-09-11T02:29:41.282Z,0.00
2017-09-11T02:30:41.271Z,0.00
2017-09-11T02:31:41.257Z,0.00
2017-09-11T02:32:41.242Z,0.00
2017-09-11T02:33:41.232Z,0.00
2017-09-11T02:34:41.215Z,0.00
2017-09-11T02:35:41.204Z,0.00
2017-09-11T02:36:41.187Z,0.00
2017-09-11T02:37:41.174Z,0.00
2017-09-11T02:38:41.160Z,0.00
2017-09-11T02:39:41.149Z,0.00
2017-09-11T02:40:41.134Z,0.00
2017-09-11T02:41:41.121Z,0.00
2017-09-11T02:42:41.109Z,0.00
2017-09-11T02:43:41.103Z,0.00
2017-09-11T02:44:41.080Z,0.00
2017-09-11T02:45:41.069Z,0.00
2017-09-11T02:46:41.056Z,0.00
2017-09-11T02:47:41.041Z,0.00
2017-09-11T02:48:41.029Z,0.00
2017-09-11T02:49:41.016Z,0.00
2017-09-11T02:50:40.999Z,0.00
2017-09-11T02:51:40.987Z,0.00
2017-09-11T02:52:40.976Z,0.00
2017-09-11T02:53:40.966Z,0.00
2017-09-11T02:54:40.947Z,0.00
2017-09-11T02:55:40.937Z,0.00
2017-09-11T02:56:40.923Z,0.00
2017-09-11T02:57:40.910Z,0.00
2017-09-11T02:58:40.895Z,0.00
2017-09-11T02:59:40.884Z,0.00
2017-09-11T03:00:40.870Z,0.00
2017-09-11T03:01:40.856Z,0.00
2017-09-11T03:02:40.846Z,0.00
2017-09-11T03:03:40.829Z,0.00
2017-09-11T03:04:40.816Z,0.00
2017-09-11T03:05:40.806Z,0.00
2017-09-11T03:06:40.791Z,0.00
2017-09-11T03:07:40.807Z,0.00
2017-09-11T03:08:40.764Z,0.00
2017-09-11T03:09:40.757Z,0.00
2017-09-11T03:10:40.740Z,0.00
2017-09-11T03:11:40.728Z,0.00
2017-09-11T03:12:40.712Z,0.00
2017-09-11T03:13:40.699Z,0.00
2017-09-11T03:14:40.687Z,0.00
2017-09-11T03:15:40.678Z,0.00
2017-09-11T03:16:40.661Z,0.00
2017-09-11T03:17:40.649Z,0.00
2017-09-11T03:18:40.634Z,0.00
2017-09-11T03:19:40.624Z,0.00
2017-09-11T03:20:40.607Z,0.00
2017-09-11T03:21:40.597Z,0.00
2017-09-11T03:22:40.583Z,0.00
2017-09-11T03:23:40.568Z,0.00
2017-09-11T03:24:40.553Z,0.00
2017-09-11T03:25:40.544Z,0.00
2017-09-11T03:26:40.530Z,0.00
2017-09-11T03:27:40.529Z,0.00
2017-09-11T03:28:40.502Z,0.00
2017-09-11T03:29:40.489Z,0.00
2017-09-11T03:30:40.475Z,0.00
2017-09-11T03:31:40.468Z,0.00
2017-09-11T03:32:40.449Z,0.00
2017-09-11T03:33:40.436Z,0.00
2017-09-11T03:34:40.421Z,0.00
2017-09-11T03:35:40.408Z,0.00
2017-09-11T03:36:40.396Z,0.00
2017-09-11T03:37:40.388Z,0.00
2017-09-11T03:38:40.371Z,0.00
2017-09-11T03:39:40.358Z,0.00
2017-09-11T03:40:40.343Z,0.00
2017-09-11T03:41:40.336Z,0.00
2017-09-11T03:42:40.318Z,0.00
2017-09-11T03:43:40.302Z,0.00
2017-09-11T03:44:40.290Z,0.00
2017-09-11T03:45:40.274Z,0.00
2017-09-11T03:46:40.263Z,0.00
2017-09-11T03:47:40.248Z,0.00
2017-09-11T03:48:40.277Z,0.00
2017-09-11T03:49:40.221Z,0.00
2017-09-11T03:50:40.209Z,0.00
2017-09-11T03:51:40.201Z,0.00
2017-09-11T03:52:40.197Z,0.00
2017-09-11T03:53:40.170Z,0.00
2017-09-11T03:54:40.159Z,0.00
2017-09-11T03:55:40.146Z,0.00
2017-09-11T03:56:40.131Z,0.00
2017-09-11T03:57:40.120Z,0.00
2017-09-11T03:58:40.109Z,0.00
2017-09-11T03:59:40.095Z,0.00
2017-09-11T04:00:40.079Z,0.00
2017-09-11T04:01:40.065Z,0.00
2017-09-11T04:02:40.055Z,0.00
2017-09-11T04:03:40.041Z,0.00
2017-09-11T04:04:40.025Z,0.00
2017-09-11T04:05:40.014Z,0.00
2017-09-11T04:06:40.000Z,0.00
2017-09-11T04:07:39.986Z,0.00
2017-09-11T04:08:39.973Z,0.00
2017-09-11T04:09:39.958Z,0.00
2017-09-11T04:10:39.952Z,0.00
2017-09-11T04:11:39.930Z,0.00
2017-09-11T04:12:39.919Z,0.00
2017-09-11T04:13:39.902Z,0.00
2017-09-11T04:14:39.891Z,0.00
2017-09-11T04:15:39.877Z,0.00
2017-09-11T04:16:39.863Z,0.00
2017-09-11T04:17:39.849Z,0.00
2017-09-11T04:18:39.833Z,0.00
2017-09-11T04:19:39.822Z,0.00
2017-09-11T04:20:39.807Z,0.00
2017-09-11T04:21:39.797Z,0.00
2017-09-11T04:22:39.781Z,0.00
2017-09-11T04:23:39.764Z,0.00
2017-09-11T04:24:39.749Z,0.00
2017-09-11T04:25:39.736Z,0.00
2017-09-11T04:26:39.724Z,0.00
2017-09-11T04:27:39.719Z,0.00
2017-09-11T04:28:39.694Z,0.00
2017-09-11T04:29:39.680Z,0.00
2017-09-11T04:30:39.664Z,0.00
2017-09-11T04:31:39.651Z,0.00
2017-09-11T04:32:39.637Z,0.00
2017-09-11T04:33:39.621Z,0.00
2017-09-11T04:34:39.608Z,0.00
2017-09-11T04:35:39.595Z,0.00
2017-09-11T04:36:39.578Z,5.63
2017-09-11T04:37:39.565Z,5.63
2017-09-11T04:38:39.549Z,5.63
2017-09-11T04:39:39.537Z,5.63
2017-09-11T04:40:39.520Z,11.25
2017-09-11T04:41:39.509Z,11.25
2017-09-11T04:42:39.493Z,11.25
2017-09-11T04:43:39.482Z,11.25
2017-09-11T04:44:39.466Z,16.88
2017-09-11T04:45:39.451Z,16.88
2017-09-11T04:46:39.437Z,22.50
2017-09-11T04:47:39.423Z,22.50
2017-09-11T04:48:39.405Z,22.50
2017-09-11T04:49:39.392Z,28.13
2017-09-11T04:50:39.385Z,33.75
2017-09-11T04:51:39.367Z,33.75
2017-09-11T04:52:39.348Z,39.38
2017-09-11T04:53:39.337Z,39.38
2017-09-11T04:54:39.319Z,45.00
2017-09-11T04:55:39.306Z,50.63
2017-09-11T04:56:39.294Z,56.25
2017-09-11T04:57:39.278Z,56.25
2017-09-11T04:58:39.262Z,61.88
2017-09-11T04:59:39.251Z,67.50
2017-09-11T05:00:39.236Z,73.13
2017-09-11T05:01:39.219Z,84.38
2017-09-11T05:02:39.209Z,106.88
2017-09-11T05:03:39.192Z,106.88
2017-09-11T05:04:39.175Z,112.50
2017-09-11T05:05:39.166Z,106.88
2017-09-11T05:06:39.148Z,95.63
2017-09-11T05:07:39.136Z,95.63
2017-09-11T05:08:39.152Z,101.25
2017-09-11T05:09:39.116Z,106.88
2017-09-11T05:10:39.091Z,112.50
2017-09-11T05:11:39.075Z,123.75
2017-09-11T05:12:39.060Z,123.75
2017-09-11T05:13:39.045Z,140.63
2017-09-11T05:14:39.033Z,146.25
2017-09-11T05:15:39.017Z,157.50
2017-09-11T05:16:39.004Z,168.75
2017-09-11T05:17:38.988Z,168.75
2017-09-11T05:18:38.976Z,185.63
2017-09-11T05:19:38.961Z,225.00
2017-09-11T05:20:38.947Z,236.25
2017-09-11T05:21:38.933Z,168.75
2017-09-11T05:22:38.919Z,185.63
2017-09-11T05:23:38.903Z,196.88
2017-09-11T05:24:38.887Z,213.75
2017-09-11T05:25:38.875Z,219.38
2017-09-11T05:26:38.862Z,247.50
2017-09-11T05:27:38.848Z,253.13
2017-09-11T05:28:38.831Z,196.88
2017-09-11T05:29:38.814Z,326.25
2017-09-11T05:30:38.801Z,303.75
2017-09-11T05:31:38.790Z,281.25
2017-09-11T05:32:38.771Z,241.88
2017-09-11T05:33:38.760Z,270.00
2017-09-11T05:34:38.746Z,315.00
2017-09-11T05:35:38.732Z,348.75
2017-09-11T05:36:38.714Z,343.13
2017-09-11T05:37:38.701Z,331.88
2017-09-11T05:38:38.689Z,292.50
2017-09-11T05:39:38.673Z,360.00
2017-09-11T05:40:38.657Z,298.13
2017-09-11T05:41:38.643Z,427.50
2017-09-11T05:42:38.630Z,320.63
2017-09-11T05:43:38.619Z,483.75
2017-09-11T05:44:38.602Z,382.50
2017-09-11T05:45:38.587Z,337.50
2017-09-11T05:46:38.575Z,343.13
2017-09-11T05:47:38.561Z,315.00
2017-09-11T05:48:38.544Z,382.50
2017-09-11T05:49:38.533Z,315.00
2017-09-11T05:50:38.519Z,371.25
2017-09-11T05:51:38.503Z,365.63
2017-09-11T05:52:38.488Z,360.00
2017-09-11T05:53:38.473Z,421.88
2017-09-11T05:54:38.459Z,382.50
2017-09-11T05:55:38.452Z,354.38
2017-09-11T05:56:38.433Z,416.25
2017-09-11T05:57:38.416Z,472.50
2017-09-11T05:58:38.408Z,500.63
2017-09-11T05:59:38.391Z,461.25
2017-09-11T06:00:38.373Z,506.25
2017-09-11T06:01:38.363Z,472.50
2017-09-11T06:02:38.349Z,517.50
2017-09-11T06:03:38.332Z,427.50
2017-09-11T06:04:38.320Z,360.00
2017-09-11T06:05:38.305Z,472.50
2017-09-11T06:06:38.291Z,478.13
2017-09-11T06:07:38.281Z,506.25
2017-09-11T06:08:38.261Z,556.88
2017-09-11T06:09:38.248Z,675.00
2017-09-11T06:10:38.234Z,787.50
2017-09-11T06:11:38.217Z,500.63
2017-09-11T06:12:38.205Z,877.50
2017-09-11T06:13:38.192Z,832.50
2017-09-11T06:14:38.176Z,877.50
2017-09-11T06:15:38.165Z,720.00
2017-09-11T06:16:38.150Z,961.88
2017-09-11T06:17:38.138Z,838.13
2017-09-11T06:18:38.119Z,652.50
2017-09-11T06:19:38.107Z,787.50
2017-09-11T06:20:38.092Z,1018.13
2017-09-11T06:21:38.078Z,984.38
2017-09-11T06:22:38.066Z,1074.38
2017-09-11T06:23:38.051Z,1125.00
2017-09-11T06:24:38.039Z,1237.50
2017-09-11T06:25:38.026Z,1310.63
2017-09-11T06:26:38.010Z,1158.75
2017-09-11T06:27:37.997Z,1096.88
2017-09-11T06:28:37.985Z,1209.38
2017-09-11T06:29:37.972Z,1231.88
2017-09-11T06:30:37.957Z,1260.00
2017-09-11T06:31:37.942Z,1299.38
2017-09-11T06:32:37.931Z,1395.00
2017-09-11T06:33:37.918Z,1372.50
2017-09-11T06:34:37.903Z,1321.88
2017-09-11T06:35:37.893Z,1282.50
2017-09-11T06:36:37.877Z,1260.00
2017-09-11T06:37:37.873Z,1293.75
2017-09-11T06:38:37.852Z,1316.25
2017-09-11T06:39:37.841Z,1372.50
2017-09-11T06:40:37.828Z,1355.63
2017-09-11T06:41:37.814Z,1344.38
2017-09-11T06:42:37.803Z,1321.88
2017-09-11T06:43:37.789Z,1226.25
2017-09-11T06:44:37.780Z,1299.38
2017-09-11T06:45:37.765Z,1344.38
2017-09-11T06:46:37.751Z,1091.25
2017-09-11T06:47:37.741Z,1220.63
2017-09-11T06:48:37.724Z,1305.00
2017-09-11T06:49:37.713Z,1406.25
2017-09-11T06:50:37.703Z,1355.63
2017-09-11T06:51:37.687Z,1355.63
2017-09-11T06:52:37.682Z,1108.13
2017-09-11T06:53:37.663Z,1417.50
2017-09-11T06:54:37.653Z,1479.38
2017-09-11T06:55:37.641Z,1445.63
2017-09-11T06:56:37.628Z,1456.88
2017-09-11T06:57:37.614Z,1451.25
2017-09-11T06:58:37.618Z,1389.38
2017-09-11T06:59:37.590Z,1321.88
2017-09-11T07:00:37.574Z,1276.88
2017-09-11T07:01:37.565Z,1282.50
2017-09-11T07:02:37.550Z,1310.63
2017-09-11T07:03:37.540Z,1276.88
2017-09-11T07:04:37.527Z,1091.25
2017-09-11T07:05:37.514Z,1282.50
2017-09-11T07:06:37.501Z,1355.63
2017-09-11T07:07:37.489Z,1192.50
2017-09-11T07:08:37.474Z,1108.13
2017-09-11T07:09:37.463Z,1046.25
2017-09-11T07:10:37.450Z,1310.63
2017-09-11T07:11:37.437Z,1096.88
2017-09-11T07:12:37.421Z,1237.50
2017-09-11T07:13:37.408Z,1428.75
2017-09-11T07:14:37.397Z,1288.13
2017-09-11T07:15:37.386Z,1456.88
2017-09-11T07:16:37.371Z,1575.00
2017-09-11T07:17:37.357Z,1867.50
2017-09-11T07:18:37.346Z,1890.00
2017-09-11T07:19:37.332Z,1828.13
2017-09-11T07:20:37.317Z,1895.63
2017-09-11T07:21:37.339Z,1046.25
2017-09-11T07:22:37.289Z,1546.88
2017-09-11T07:23:37.280Z,1231.88
2017-09-11T07:24:37.262Z,1310.63
2017-09-11T07:25:37.251Z,1383.75
2017-09-11T07:26:37.238Z,1445.63
2017-09-11T07:27:37.224Z,1434.38
2017-09-11T07:28:37.211Z,1310.63
2017-09-11T07:29:37.200Z,1490.63
2017-09-11T07:30:37.189Z,686.25
2017-09-11T07:31:37.173Z,1063.13
2017-09-11T07:32:37.165Z,1395.00
2017-09-11T07:33:37.148Z,1575.00
2017-09-11T07:34:37.135Z,1710.00
2017-09-11T07:35:37.123Z,1766.25
2017-09-11T07:36:37.106Z,1895.63
2017-09-11T07:37:37.094Z,1951.88
2017-09-11T07:38:37.082Z,1901.25
2017-09-11T07:39:37.069Z,1760.63
2017-09-11T07:40:37.056Z,1186.88
2017-09-11T07:41:37.042Z,1861.88
2017-09-11T07:42:37.032Z,1918.13
2017-09-11T07:43:37.016Z,1710.00
2017-09-11T07:44:37.004Z,1906.88
2017-09-11T07:45:36.994Z,1625.63
2017-09-11T07:46:36.979Z,2205.00
2017-09-11T07:47:36.968Z,1620.00
2017-09-11T07:48:36.986Z,2013.75
2017-09-11T07:49:36.942Z,2238.75
2017-09-11T07:50:36.928Z,1929.38
2017-09-11T07:51:36.917Z,2008.13
2017-09-11T07:52:36.906Z,1755.00
2017-09-11T07:53:36.890Z,1980.00
2017-09-11T07:54:36.880Z,2103.75
2017-09-11T07:55:36.868Z,2047.50
2017-09-11T07:56:36.855Z,2148.75
2017-09-11T07:57:36.840Z,1946.25
2017-09-11T07:58:36.830Z,2030.63
2017-09-11T07:59:36.817Z,2306.25
2017-09-11T08:00:36.804Z,2435.63
2017-09-11T08:01:36.792Z,2058.75
2017-09-11T08:02:36.782Z,2221.88
2017-09-11T08:03:36.768Z,2829.38
2017-09-11T08:04:36.758Z,2233.13
2017-09-11T08:05:36.747Z,2081.25
2017-09-11T08:06:36.732Z,1822.50
2017-09-11T08:07:36.723Z,1805.63
2017-09-11T08:08:36.707Z,1614.38
2017-09-11T08:09:36.696Z,1434.38
2017-09-11T08:10:36.684Z,1282.50
2017-09-11T08:11:36.675Z,1220.63
2017-09-11T08:12:36.659Z,1203.75
2017-09-11T08:13:36.653Z,1243.13
2017-09-11T08:14:36.636Z,1265.63
2017-09-11T08:15:36.624Z,1400.63
2017-09-11T08:16:36.615Z,1434.38
2017-09-11T08:17:36.600Z,1496.25
2017-09-11T08:18:36.596Z,1468.13
2017-09-11T08:19:36.577Z,1546.88
2017-09-11T08:20:36.565Z,1670.63
2017-09-11T08:21:36.556Z,1642.50
2017-09-11T08:22:36.542Z,1558.13
2017-09-11T08:23:36.532Z,1575.00
2017-09-11T08:24:36.520Z,1563.75
2017-09-11T08:25:36.509Z,1507.50
2017-09-11T08:26:36.496Z,1462.50
2017-09-11T08:27:36.485Z,1496.25
2017-09-11T08:28:36.475Z,1456.88
2017-09-11T08:29:36.463Z,1411.88
2017-09-11T08:30:36.452Z,1440.00
2017-09-11T08:31:36.441Z,1468.13
2017-09-11T08:32:36.426Z,1620.00
2017-09-11T08:33:36.418Z,1636.88
2017-09-11T08:34:36.405Z,1710.00
2017-09-11T08:35:36.394Z,1693.13
2017-09-11T08:36:36.382Z,1698.75
2017-09-11T08:37:36.374Z,1648.13
2017-09-11T08:38:36.365Z,1867.50
2017-09-11T08:39:36.352Z,2008.13
2017-09-11T08:40:36.386Z,1856.25
2017-09-11T08:41:36.344Z,1833.75
2017-09-11T08:42:36.323Z,1698.75
2017-09-11T08:43:36.313Z,1597.50
2017-09-11T08:44:36.301Z,1462.50
2017-09-11T08:45:36.308Z,1423.13
2017-09-11T08:46:36.285Z,1411.88
2017-09-11T08:47:36.274Z,1350.00
2017-09-11T08:48:36.268Z,1338.75
2017-09-11T08:49:36.255Z,1276.88
2017-09-11T08:50:36.246Z,1164.38
2017-09-11T08:51:36.235Z,1091.25
2017-09-11T08:52:36.228Z,933.75
2017-09-11T08:53:36.219Z,787.50
2017-09-11T08:54:36.209Z,753.75
2017-09-11T08:55:36.197Z,720.00
2017-09-11T08:56:36.189Z,776.25
2017-09-11T08:57:36.176Z,894.38
2017-09-11T08:58:36.181Z,967.50
2017-09-11T08:59:36.159Z,967.50
2017-09-11T09:00:36.150Z,928.13
2017-09-11T09:01:36.137Z,928.13
2017-09-11T09:02:36.126Z,945.00
2017-09-11T09:03:36.516Z,967.50
2017-09-11T09:04:36.101Z,916.88
2017-09-11T09:05:36.090Z,928.13
2017-09-11T09:06:36.083Z,990.00
2017-09-11T09:07:36.067Z,1186.88
2017-09-11T09:08:36.053Z,1316.25
2017-09-11T09:09:36.043Z,1327.50
2017-09-11T09:10:36.031Z,1361.25
2017-09-11T09:11:36.017Z,1265.63
2017-09-11T09:12:36.007Z,1158.75
2017-09-11T09:13:35.992Z,1153.13
2017-09-11T09:14:35.981Z,1350.00
2017-09-11T09:15:35.967Z,1603.13
2017-09-11T09:16:35.956Z,1856.25
2017-09-11T09:17:35.943Z,2205.00
2017-09-11T09:18:35.931Z,2356.88
2017-09-11T09:19:35.916Z,2300.63
2017-09-11T09:20:35.904Z,3082.50
2017-09-11T09:21:35.890Z,2289.38
2017-09-11T09:22:35.879Z,2250.00
2017-09-11T09:23:35.865Z,2210.63
2017-09-11T09:24:35.850Z,2154.38
2017-09-11T09:25:35.840Z,1980.00
2017-09-11T09:26:35.832Z,1828.13
2017-09-11T09:27:35.814Z,1732.50
2017-09-11T09:28:35.800Z,1698.75
2017-09-11T09:29:35.786Z,1569.38
2017-09-11T09:30:35.773Z,1406.25
2017-09-11T09:31:35.761Z,1395.00
2017-09-11T09:32:35.748Z,1473.75
2017-09-11T09:33:35.735Z,1490.63
2017-09-11T09:34:35.725Z,1333.13
2017-09-11T09:35:35.715Z,1243.13
2017-09-11T09:36:35.700Z,1316.25
2017-09-11T09:37:35.687Z,1299.38
2017-09-11T09:38:35.674Z,1119.38
2017-09-11T09:39:35.664Z,984.38
2017-09-11T09:40:35.651Z,928.13
2017-09-11T09:41:35.638Z,838.13
2017-09-11T09:42:35.627Z,720.00
2017-09-11T09:43:35.615Z,669.38
2017-09-11T09:44:35.605Z,669.38
2017-09-11T09:45:35.588Z,641.25
2017-09-11T09:46:35.576Z,618.75
2017-09-11T09:47:35.568Z,652.50
2017-09-11T09:48:35.554Z,680.63
2017-09-11T09:49:35.539Z,663.75
2017-09-11T09:50:35.527Z,680.63
2017-09-11T09:51:35.517Z,703.13
2017-09-11T09:52:35.503Z,714.38
2017-09-11T09:53:35.495Z,765.00
2017-09-11T09:54:35.481Z,843.75
2017-09-11T09:55:35.465Z,871.88
2017-09-11T09:56:35.452Z,821.25
2017-09-11T09:57:35.439Z,810.00
2017-09-11T09:58:35.426Z,793.13
2017-09-11T09:59:35.412Z,787.50
2017-09-11T10:00:35.399Z,911.25
2017-09-11T10:01:35.384Z,1147.50
2017-09-11T10:02:35.393Z,1254.38
2017-09-11T10:03:35.357Z,1237.50
2017-09-11T10:04:35.342Z,1321.88
2017-09-11T10:05:35.328Z,1518.75
2017-09-11T10:06:35.312Z,1580.63
2017-09-11T10:07:35.300Z,1496.25
2017-09-11T10:08:35.284Z,1406.25
2017-09-11T10:09:35.269Z,1316.25
2017-09-11T10:10:35.255Z,1192.50
2017-09-11T10:11:35.240Z,1040.63
2017-09-11T10:12:35.223Z,950.63
2017-09-11T10:13:35.208Z,945.00
2017-09-11T10:14:35.296Z,956.25
2017-09-11T10:15:35.178Z,990.00
2017-09-11T10:16:35.164Z,1035.00
2017-09-11T10:17:35.150Z,1006.88
2017-09-11T10:18:35.134Z,956.25
2017-09-11T10:19:35.119Z,928.13
2017-09-11T10:20:35.104Z,933.75
2017-09-11T10:21:35.085Z,984.38
2017-09-11T10:22:35.072Z,1029.38
2017-09-11T10:23:35.091Z,1091.25
2017-09-11T10:24:35.039Z,1248.75
2017-09-11T10:25:35.026Z,1400.63
2017-09-11T10:26:35.011Z,1456.88
2017-09-11T10:27:34.993Z,1552.50
2017-09-11T10:28:34.977Z,1721.25
2017-09-11T10:29:34.967Z,1755.00
2017-09-11T10:30:34.947Z,1721.25
2017-09-11T10:31:34.933Z,1721.25
2017-09-11T10:32:34.916Z,1636.88
2017-09-11T10:33:34.903Z,1636.88
2017-09-11T10:34:34.888Z,1760.63
2017-09-11T10:35:34.875Z,1783.13
2017-09-11T10:36:34.855Z,1698.75
2017-09-11T10:37:34.840Z,1766.25
2017-09-11T10:38:34.825Z,1991.25
2017-09-11T10:39:34.812Z,2266.88
2017-09-11T10:40:34.800Z,2373.75
2017-09-11T10:41:34.780Z,1951.88
2017-09-11T10:42:34.768Z,1704.38
2017-09-11T10:43:34.753Z,1816.88
2017-09-11T10:44:34.735Z,1749.38
2017-09-11T10:45:34.721Z,1552.50
2017-09-11T10:46:34.707Z,1552.50
2017-09-11T10:47:34.692Z,1704.38
2017-09-11T10:48:34.701Z,1794.38
2017-09-11T10:49:34.659Z,1676.25
2017-09-11T10:50:34.645Z,1530.00
2017-09-11T10:51:34.635Z,1563.75
2017-09-11T10:52:34.615Z,1805.63
2017-09-11T10:53:34.600Z,1884.38
2017-09-11T10:54:34.584Z,1828.13
2017-09-11T10:55:34.573Z,1929.38
2017-09-11T10:56:34.557Z,2379.38
2017-09-11T10:57:34.542Z,1968.75
2017-09-11T10:58:34.526Z,2278.13
2017-09-11T10:59:34.514Z,2396.25
2017-09-11T11:00:34.499Z,2722.50
2017-09-11T11:01:34.483Z,2739.38
2017-09-11T11:02:34.469Z,2598.75
2017-09-11T11:03:34.455Z,2289.38
2017-09-11T11:04:34.440Z,1906.88
2017-09-11T11:05:34.427Z,1676.25
2017-09-11T11:06:34.415Z,1575.00
2017-09-11T11:07:34.402Z,1603.13
2017-09-11T11:08:34.390Z,1665.00
2017-09-11T11:09:34.378Z,1676.25
2017-09-11T11:10:34.362Z,1603.13
2017-09-11T11:11:34.351Z,1569.38
2017-09-11T11:12:34.337Z,1648.13
2017-09-11T11:13:34.323Z,2075.63
2017-09-11T11:14:34.314Z,2261.25
2017-09-11T11:15:34.300Z,2784.38
2017-09-11T11:16:34.289Z,3976.88
2017-09-11T11:17:34.275Z,4719.38
2017-09-11T11:18:34.263Z,4320.00
2017-09-11T11:19:34.255Z,4027.50
2017-09-11T11:20:34.242Z,4713.75
2017-09-11T11:21:34.232Z,3150.00
2017-09-11T11:22:34.218Z,2947.50
2017-09-11T11:23:34.208Z,2733.75
2017-09-11T11:24:34.198Z,2283.75
2017-09-11T11:25:34.188Z,2581.88
2017-09-11T11:26:34.176Z,2497.50
2017-09-11T11:27:34.168Z,2655.00
2017-09-11T11:28:34.153Z,3031.88
2017-09-11T11:29:34.147Z,3335.63
2017-09-11T11:30:34.131Z,3594.38
2017-09-11T11:31:34.123Z,3240.00
2017-09-11T11:32:34.111Z,2998.13
2017-09-11T11:33:34.098Z,3279.38
2017-09-11T11:34:34.091Z,3431.25
2017-09-11T11:35:34.080Z,3020.63
2017-09-11T11:36:34.071Z,2722.50
2017-09-11T11:37:34.061Z,2756.25
2017-09-11T11:38:34.050Z,2677.50
2017-09-11T11:39:34.039Z,2739.38
2017-09-11T11:40:34.029Z,2469.38
2017-09-11T11:41:34.020Z,2323.13
2017-09-11T11:42:34.010Z,2193.75
2017-09-11T11:43:33.999Z,2008.13
2017-09-11T11:44:33.992Z,2154.38
2017-09-11T11:45:33.980Z,2002.50
2017-09-11T11:46:33.973Z,2165.63
2017-09-11T11:47:33.962Z,2255.63
2017-09-11T11:48:33.952Z,2328.75
2017-09-11T11:49:33.939Z,2205.00
2017-09-11T11:50:33.933Z,2064.38
2017-09-11T11:51:33.923Z,1895.63
2017-09-11T11:52:33.913Z,1833.75
2017-09-11T11:53:33.899Z,1715.63
2017-09-11T11:54:33.890Z,1563.75
2017-09-11T11:55:33.880Z,1468.13
2017-09-11T11:56:33.872Z,1670.63
2017-09-11T11:57:33.861Z,1400.63
2017-09-11T11:58:33.848Z,1423.13
2017-09-11T11:59:33.841Z,1406.25
2017-09-11T12:00:33.829Z,1226.25
2017-09-11T12:01:33.816Z,1316.25
2017-09-11T12:02:33.806Z,1310.63
2017-09-11T12:03:33.795Z,1395.00
2017-09-11T12:04:33.787Z,1620.00
2017-09-11T12:05:33.784Z,1631.25
2017-09-11T12:06:33.762Z,1265.63
2017-09-11T12:07:33.753Z,1338.75
2017-09-11T12:08:33.741Z,1417.50
2017-09-11T12:09:33.732Z,1445.63
2017-09-11T12:10:33.718Z,1501.88
2017-09-11T12:11:33.709Z,1535.63
2017-09-11T12:12:33.695Z,1670.63
2017-09-11T12:13:33.685Z,1980.00
2017-09-11T12:14:33.674Z,2002.50
2017-09-11T12:15:33.664Z,1957.50
2017-09-11T12:16:33.653Z,1816.88
2017-09-11T12:17:33.645Z,1710.00
2017-09-11T12:18:33.633Z,1597.50
2017-09-11T12:19:33.627Z,1456.88
2017-09-11T12:20:33.614Z,1282.50
2017-09-11T12:21:33.603Z,1181.25
2017-09-11T12:22:33.590Z,1186.88
2017-09-11T12:23:33.579Z,1215.00
2017-09-11T12:24:33.575Z,1192.50
2017-09-11T12:25:33.558Z,1175.63
2017-09-11T12:26:33.544Z,1254.38
2017-09-11T12:27:33.533Z,1569.38
2017-09-11T12:28:33.523Z,2036.25
2017-09-11T12:29:33.513Z,2283.75
2017-09-11T12:30:33.499Z,2103.75
2017-09-11T12:31:33.487Z,1884.38
2017-09-11T12:32:33.478Z,1648.13
2017-09-11T12:33:33.464Z,1479.38
2017-09-11T12:34:33.452Z,1738.13
2017-09-11T12:35:33.444Z,1698.75
2017-09-11T12:36:33.429Z,1698.75